sensor_id;sensor_type;location;lat;lon;timestamp;pressure;altitude;pressure_sealevel;temperature;humidity
9969;BME280;5025;48.890;9.278;2024-01-10T00:00:30;99701.25;;;-2.74;55.26
9969;BME280;5025;48.890;9.278;2024-01-10T00:02:55;99697.91;;;-2.76;55.10
9969;BME280;5025;48.890;9.278;2024-01-10T00:05:20;99696.22;;;-2.77;54.96
9969;BME280;5025;48.890;9.278;2024-01-10T00:07:46;99699.81;;;-2.78;55.33
9969;BME280;5025;48.890;9.278;2024-01-10T00:10:11;99700.66;;;-2.77;55.47
9969;BME280;5025;48.890;9.278;2024-01-10T00:12:36;99698.03;;;-2.77;55.78
9969;BME280;5025;48.890;9.278;2024-01-10T00:15:05;99693.69;;;-2.78;55.96
9969;BME280;5025;48.890;9.278;2024-01-10T00:17:31;99695.50;;;-2.79;55.93
9969;BME280;5025;48.890;9.278;2024-01-10T00:19:56;99690.22;;;-2.79;55.90
9969;BME280;5025;48.890;9.278;2024-01-10T00:22:21;99696.44;;;-2.80;55.99
9969;BME280;5025;48.890;9.278;2024-01-10T00:24:47;99692.13;;;-2.81;56.40
9969;BME280;5025;48.890;9.278;2024-01-10T00:27:12;99696.34;;;-2.78;56.47
9969;BME280;5025;48.890;9.278;2024-01-10T00:29:37;99693.81;;;-2.80;56.48
9969;BME280;5025;48.890;9.278;2024-01-10T00:32:03;99692.13;;;-2.81;56.25
9969;BME280;5025;48.890;9.278;2024-01-10T00:34:29;99689.47;;;-2.81;56.51
9969;BME280;5025;48.890;9.278;2024-01-10T00:36:54;99685.06;;;-2.80;56.52
9969;BME280;5025;48.890;9.278;2024-01-10T00:39:20;99685.75;;;-2.78;56.57
9969;BME280;5025;48.890;9.278;2024-01-10T00:41:45;99688.53;;;-2.80;56.50
9969;BME280;5025;48.890;9.278;2024-01-10T00:44:10;99689.47;;;-2.81;57.04
9969;BME280;5025;48.890;9.278;2024-01-10T00:46:35;99678.19;;;-2.83;57.21
9969;BME280;5025;48.890;9.278;2024-01-10T00:49:01;99681.53;;;-2.81;56.97
9969;BME280;5025;48.890;9.278;2024-01-10T00:51:26;99681.53;;;-2.81;57.02
9969;BME280;5025;48.890;9.278;2024-01-10T00:53:51;99675.53;;;-2.83;56.88
9969;BME280;5025;48.890;9.278;2024-01-10T00:56:16;99681.66;;;-2.82;57.41
9969;BME280;5025;48.890;9.278;2024-01-10T00:58:42;99685.16;;;-2.82;57.04
9969;BME280;5025;48.890;9.278;2024-01-10T01:01:07;99677.38;;;-2.83;57.32
9969;BME280;5025;48.890;9.278;2024-01-10T01:03:32;99682.53;;;-2.82;57.18
9969;BME280;5025;48.890;9.278;2024-01-10T01:05:57;99685.75;;;-2.78;57.17
9969;BME280;5025;48.890;9.278;2024-01-10T01:08:23;99683.94;;;-2.78;57.37
9969;BME280;5025;48.890;9.278;2024-01-10T01:10:48;99688.28;;;-2.77;57.25
9969;BME280;5025;48.890;9.278;2024-01-10T01:13:13;99691.50;;;-2.73;57.18
9969;BME280;5025;48.890;9.278;2024-01-10T01:15:38;99697.66;;;-2.73;57.37
9969;BME280;5025;48.890;9.278;2024-01-10T01:18:04;99692.38;;;-2.73;57.07
9969;BME280;5025;48.890;9.278;2024-01-10T01:20:29;99701.00;;;-2.71;56.98
9969;BME280;5025;48.890;9.278;2024-01-10T01:22:54;99697.41;;;-2.69;57.03
9969;BME280;5025;48.890;9.278;2024-01-10T01:25:20;99698.25;;;-2.69;57.19
9969;BME280;5025;48.890;9.278;2024-01-10T01:27:45;99711.34;;;-2.67;57.11
9969;BME280;5025;48.890;9.278;2024-01-10T01:30:10;99705.22;;;-2.68;57.07
9969;BME280;5025;48.890;9.278;2024-01-10T01:32:37;99693.56;;;-2.65;57.18
9969;BME280;5025;48.890;9.278;2024-01-10T01:35:02;99696.19;;;-2.65;56.85
9969;BME280;5025;48.890;9.278;2024-01-10T01:37:28;99696.94;;;-2.63;56.71
9969;BME280;5025;48.890;9.278;2024-01-10T01:39:53;99697.75;;;-2.63;56.72
9969;BME280;5025;48.890;9.278;2024-01-10T01:42:18;99689.25;;;-2.66;56.64
9969;BME280;5025;48.890;9.278;2024-01-10T01:44:43;99704.00;;;-2.64;56.63
9969;BME280;5025;48.890;9.278;2024-01-10T01:47:09;99689.00;;;-2.63;56.45
9969;BME280;5025;48.890;9.278;2024-01-10T01:49:34;99691.66;;;-2.63;56.48
9969;BME280;5025;48.890;9.278;2024-01-10T01:52:00;99690.66;;;-2.62;56.52
9969;BME280;5025;48.890;9.278;2024-01-10T01:54:26;99684.44;;;-2.61;56.31
9969;BME280;5025;48.890;9.278;2024-01-10T01:56:52;99684.44;;;-2.61;56.14
9969;BME280;5025;48.890;9.278;2024-01-10T01:59:17;99679.13;;;-2.61;56.06
9969;BME280;5025;48.890;9.278;2024-01-10T02:01:43;99685.13;;;-2.59;56.06
9969;BME280;5025;48.890;9.278;2024-01-10T02:04:09;99684.06;;;-2.57;56.24
9969;BME280;5025;48.890;9.278;2024-01-10T02:06:34;99680.56;;;-2.57;55.86
9969;BME280;5025;48.890;9.278;2024-01-10T02:09:00;99682.25;;;-2.56;56.03
9969;BME280;5025;48.890;9.278;2024-01-10T02:11:25;99685.72;;;-2.56;56.00
9969;BME280;5025;48.890;9.278;2024-01-10T02:13:52;99686.59;;;-2.55;55.76
9969;BME280;5025;48.890;9.278;2024-01-10T02:16:19;99689.94;;;-2.53;55.66
9969;BME280;5025;48.890;9.278;2024-01-10T02:18:45;99688.25;;;-2.54;55.48
9969;BME280;5025;48.890;9.278;2024-01-10T02:21:10;99683.94;;;-2.55;55.72
9969;BME280;5025;48.890;9.278;2024-01-10T02:23:35;99676.00;;;-2.55;55.55
9969;BME280;5025;48.890;9.278;2024-01-10T02:26:01;99672.50;;;-2.56;55.19
9969;BME280;5025;48.890;9.278;2024-01-10T02:28:26;99669.72;;;-2.54;55.58
9969;BME280;5025;48.890;9.278;2024-01-10T02:30:52;99671.41;;;-2.53;55.48
9969;BME280;5025;48.890;9.278;2024-01-10T02:33:19;99671.41;;;-2.53;55.12
9969;BME280;5025;48.890;9.278;2024-01-10T02:35:44;99669.72;;;-2.54;55.28
9969;BME280;5025;48.890;9.278;2024-01-10T02:38:09;99668.19;;;-2.57;55.26
9969;BME280;5025;48.890;9.278;2024-01-10T02:40:35;99661.78;;;-2.54;54.92
9969;BME280;5025;48.890;9.278;2024-01-10T02:43:00;99663.59;;;-2.55;54.94
9969;BME280;5025;48.890;9.278;2024-01-10T02:45:25;99667.94;;;-2.54;55.06
9969;BME280;5025;48.890;9.278;2024-01-10T02:47:51;99665.31;;;-2.54;54.98
9969;BME280;5025;48.890;9.278;2024-01-10T02:50:16;99663.50;;;-2.53;54.89
9969;BME280;5025;48.890;9.278;2024-01-10T02:52:41;99667.09;;;-2.54;54.64
9969;BME280;5025;48.890;9.278;2024-01-10T02:55:07;99664.44;;;-2.54;55.18
9969;BME280;5025;48.890;9.278;2024-01-10T02:57:32;99668.78;;;-2.53;54.95
9969;BME280;5025;48.890;9.278;2024-01-10T02:59:57;99657.63;;;-2.57;55.04
9969;BME280;5025;48.890;9.278;2024-01-10T03:02:23;99657.75;;;-2.58;54.91
9969;BME280;5025;48.890;9.278;2024-01-10T03:04:48;99650.75;;;-2.59;54.89
9969;BME280;5025;48.890;9.278;2024-01-10T03:07:14;99655.22;;;-2.60;54.91
9969;BME280;5025;48.890;9.278;2024-01-10T03:09:39;99646.69;;;-2.63;55.14
9969;BME280;5025;48.890;9.278;2024-01-10T03:12:04;99655.59;;;-2.64;54.90
9969;BME280;5025;48.890;9.278;2024-01-10T03:14:29;99645.97;;;-2.65;55.16
9969;BME280;5025;48.890;9.278;2024-01-10T03:16:55;99649.59;;;-2.66;55.18
9969;BME280;5025;48.890;9.278;2024-01-10T03:19:20;99644.53;;;-2.69;55.28
9969;BME280;5025;48.890;9.278;2024-01-10T03:21:45;99638.28;;;-2.68;54.99
9969;BME280;5025;48.890;9.278;2024-01-10T03:24:10;99643.56;;;-2.68;55.03
9969;BME280;5025;48.890;9.278;2024-01-10T03:26:36;99637.56;;;-2.71;55.13
9969;BME280;5025;48.890;9.278;2024-01-10T03:29:01;99641.16;;;-2.72;55.05
9969;BME280;5025;48.890;9.278;2024-01-10T03:31:28;99638.41;;;-2.70;55.20
9969;BME280;5025;48.890;9.278;2024-01-10T03:33:54;99642.84;;;-2.71;55.47
9969;BME280;5025;48.890;9.278;2024-01-10T03:36:19;99642.84;;;-2.71;55.40
9969;BME280;5025;48.890;9.278;2024-01-10T03:38:44;99641.03;;;-2.70;55.27
9969;BME280;5025;48.890;9.278;2024-01-10T03:41:17;99642.72;;;-2.69;55.30
9969;BME280;5025;48.890;9.278;2024-01-10T03:43:43;99644.53;;;-2.69;55.42
9969;BME280;5025;48.890;9.278;2024-01-10T03:46:12;99630.34;;;-2.68;55.23
9969;BME280;5025;48.890;9.278;2024-01-10T03:48:38;99638.28;;;-2.68;55.33
9969;BME280;5025;48.890;9.278;2024-01-10T03:51:12;99636.50;;;-2.68;55.26
9969;BME280;5025;48.890;9.278;2024-01-10T03:53:37;99635.63;;;-2.68;55.74
9969;BME280;5025;48.890;9.278;2024-01-10T03:56:06;99641.78;;;-2.68;55.41
9969;BME280;5025;48.890;9.278;2024-01-10T03:58:31;99632.88;;;-2.67;55.52
9969;BME280;5025;48.890;9.278;2024-01-10T04:00:56;99638.16;;;-2.67;55.65
9969;BME280;5025;48.890;9.278;2024-01-10T04:03:22;99637.31;;;-2.67;55.51
9969;BME280;5025;48.890;9.278;2024-01-10T04:05:47;99632.03;;;-2.67;55.57
9969;BME280;5025;48.890;9.278;2024-01-10T04:08:12;99635.38;;;-2.65;55.67
9969;BME280;5025;48.890;9.278;2024-01-10T04:10:37;99642.38;;;-2.64;55.73
9969;BME280;5025;48.890;9.278;2024-01-10T04:13:03;99646.69;;;-2.63;55.64
9969;BME280;5025;48.890;9.278;2024-01-10T04:15:28;99643.19;;;-2.64;55.70
9969;BME280;5025;48.890;9.278;2024-01-10T04:17:53;99640.56;;;-2.64;55.79
9969;BME280;5025;48.890;9.278;2024-01-10T04:20:18;99644.06;;;-2.63;55.72
9969;BME280;5025;48.890;9.278;2024-01-10T04:22:44;99653.53;;;-2.61;55.68
9969;BME280;5025;48.890;9.278;2024-01-10T04:25:10;99644.88;;;-2.63;56.03
9969;BME280;5025;48.890;9.278;2024-01-10T04:27:36;99647.41;;;-2.61;55.97
9969;BME280;5025;48.890;9.278;2024-01-10T04:30:01;99651.84;;;-2.62;55.80
9969;BME280;5025;48.890;9.278;2024-01-10T04:32:26;99644.63;;;-2.60;55.91
9969;BME280;5025;48.890;9.278;2024-01-10T04:34:52;99643.91;;;-2.62;55.95
9969;BME280;5025;48.890;9.278;2024-01-10T04:37:17;99639.47;;;-2.61;55.63
9969;BME280;5025;48.890;9.278;2024-01-10T04:39:43;99634.31;;;-2.63;55.99
9969;BME280;5025;48.890;9.278;2024-01-10T04:42:10;99635.38;;;-2.65;56.07
9969;BME280;5025;48.890;9.278;2024-01-10T04:44:36;99638.28;;;-2.68;56.05
9969;BME280;5025;48.890;9.278;2024-01-10T04:47:02;99641.91;;;-2.69;56.13
9969;BME280;5025;48.890;9.278;2024-01-10T04:49:27;99637.31;;;-2.67;55.91
9969;BME280;5025;48.890;9.278;2024-01-10T04:51:53;99640.66;;;-2.65;55.85
9969;BME280;5025;48.890;9.278;2024-01-10T04:54:18;99643.31;;;-2.65;55.82
9969;BME280;5025;48.890;9.278;2024-01-10T04:56:43;99638.63;;;-2.62;55.79
9969;BME280;5025;48.890;9.278;2024-01-10T04:59:08;99636.72;;;-2.60;55.54
9969;BME280;5025;48.890;9.278;2024-01-10T05:01:34;99643.53;;;-2.57;55.78
9969;BME280;5025;48.890;9.278;2024-01-10T05:03:59;99639.22;;;-2.58;56.04
9969;BME280;5025;48.890;9.278;2024-01-10T05:06:25;99642.56;;;-2.56;55.86
9969;BME280;5025;48.890;9.278;2024-01-10T05:08:50;99644.28;;;-2.55;56.25
9969;BME280;5025;48.890;9.278;2024-01-10T05:11:15;99635.47;;;-2.56;56.14
9969;BME280;5025;48.890;9.278;2024-01-10T05:13:42;99641.50;;;-2.54;56.21
9969;BME280;5025;48.890;9.278;2024-01-10T05:16:07;99643.28;;;-2.54;56.14
9969;BME280;5025;48.890;9.278;2024-01-10T05:18:32;99640.75;;;-2.56;55.95
9969;BME280;5025;48.890;9.278;2024-01-10T05:20:59;99643.03;;;-2.51;56.09
9969;BME280;5025;48.890;9.278;2024-01-10T05:23:25;99643.91;;;-2.50;56.07
9969;BME280;5025;48.890;9.278;2024-01-10T05:25:50;99645.56;;;-2.49;56.06
9969;BME280;5025;48.890;9.278;2024-01-10T05:28:16;99646.41;;;-2.49;56.17
9969;BME280;5025;48.890;9.278;2024-01-10T05:30:41;99640.16;;;-2.48;56.17
9969;BME280;5025;48.890;9.278;2024-01-10T05:33:08;99630.69;;;-2.50;56.26
9969;BME280;5025;48.890;9.278;2024-01-10T05:35:33;99644.03;;;-2.52;56.26
9969;BME280;5025;48.890;9.278;2024-01-10T05:38:00;99644.97;;;-2.53;56.28
9969;BME280;5025;48.890;9.278;2024-01-10T05:40:27;99651.97;;;-2.52;56.30
9969;BME280;5025;48.890;9.278;2024-01-10T05:42:55;99647.63;;;-2.53;56.43
9969;BME280;5025;48.890;9.278;2024-01-10T05:45:20;99646.66;;;-2.52;56.18
9969;BME280;5025;48.890;9.278;2024-01-10T05:47:45;99644.03;;;-2.52;56.40
9969;BME280;5025;48.890;9.278;2024-01-10T05:50:11;99650.03;;;-2.50;56.33
9969;BME280;5025;48.890;9.278;2024-01-10T05:52:36;99641.13;;;-2.49;56.38
9969;BME280;5025;48.890;9.278;2024-01-10T05:55:01;99643.78;;;-2.49;56.18
9969;BME280;5025;48.890;9.278;2024-01-10T05:57:27;99644.72;;;-2.50;56.20
9969;BME280;5025;48.890;9.278;2024-01-10T05:59:53;99650.84;;;-2.49;56.46
9969;BME280;5025;48.890;9.278;2024-01-10T06:02:22;99651.97;;;-2.52;56.19
9969;BME280;5025;48.890;9.278;2024-01-10T06:04:47;99652.66;;;-2.50;56.28
9969;BME280;5025;48.890;9.278;2024-01-10T06:07:12;99641.38;;;-2.52;56.56
9969;BME280;5025;48.890;9.278;2024-01-10T06:09:38;99652.91;;;-2.53;56.40
9969;BME280;5025;48.890;9.278;2024-01-10T06:12:05;99651.97;;;-2.52;56.31
9969;BME280;5025;48.890;9.278;2024-01-10T06:14:30;99651.34;;;-2.56;56.52
9969;BME280;5025;48.890;9.278;2024-01-10T06:16:56;99648.69;;;-2.56;56.29
9969;BME280;5025;48.890;9.278;2024-01-10T06:19:24;99648.56;;;-2.54;56.21
9969;BME280;5025;48.890;9.278;2024-01-10T06:21:49;99656.63;;;-2.56;56.45
9969;BME280;5025;48.890;9.278;2024-01-10T06:24:15;99652.44;;;-2.58;56.69
9969;BME280;5025;48.890;9.278;2024-01-10T06:26:40;99660.38;;;-2.58;56.31
9969;BME280;5025;48.890;9.278;2024-01-10T06:29:05;99660.38;;;-2.58;56.64
9969;BME280;5025;48.890;9.278;2024-01-10T06:31:31;99660.38;;;-2.58;56.33
9969;BME280;5025;48.890;9.278;2024-01-10T06:33:56;99664.69;;;-2.57;56.50
9969;BME280;5025;48.890;9.278;2024-01-10T06:36:21;99666.63;;;-2.59;56.29
9969;BME280;5025;48.890;9.278;2024-01-10T06:38:47;99667.44;;;-2.59;56.60
9969;BME280;5025;48.890;9.278;2024-01-10T06:41:12;99665.78;;;-2.60;56.67
9969;BME280;5025;48.890;9.278;2024-01-10T06:43:39;99670.22;;;-2.60;56.53
9969;BME280;5025;48.890;9.278;2024-01-10T06:46:04;99675.50;;;-2.60;56.75
9969;BME280;5025;48.890;9.278;2024-01-10T06:48:30;99677.19;;;-2.59;56.88
9969;BME280;5025;48.890;9.278;2024-01-10T06:50:56;99678.91;;;-2.58;56.63
9969;BME280;5025;48.890;9.278;2024-01-10T06:53:22;99673.59;;;-2.58;56.86
9969;BME280;5025;48.890;9.278;2024-01-10T06:55:47;99685.25;;;-2.61;56.46
9969;BME280;5025;48.890;9.278;2024-01-10T06:58:12;99678.28;;;-2.62;56.72
9969;BME280;5025;48.890;9.278;2024-01-10T07:00:37;99675.63;;;-2.62;56.94
9969;BME280;5025;48.890;9.278;2024-01-10T07:03:03;99665.91;;;-2.61;56.48
9969;BME280;5025;48.890;9.278;2024-01-10T07:05:29;99671.31;;;-2.63;56.45
9969;BME280;5025;48.890;9.278;2024-01-10T07:07:56;99657.97;;;-2.61;56.70
9969;BME280;5025;48.890;9.278;2024-01-10T07:10:22;99652.00;;;-2.63;56.47
9969;BME280;5025;48.890;9.278;2024-01-10T07:12:51;99662.56;;;-2.63;57.13
9969;BME280;5025;48.890;9.278;2024-01-10T07:15:16;99659.75;;;-2.62;57.06
9969;BME280;5025;48.890;9.278;2024-01-10T07:17:42;99673.00;;;-2.62;57.05
9969;BME280;5025;48.890;9.278;2024-01-10T07:20:08;99674.69;;;-2.61;57.13
9969;BME280;5025;48.890;9.278;2024-01-10T07:22:36;99679.84;;;-2.59;57.04
9969;BME280;5025;48.890;9.278;2024-01-10T07:25:04;99675.50;;;-2.60;56.89
9969;BME280;5025;48.890;9.278;2024-01-10T07:27:31;99679.84;;;-2.59;56.99
9969;BME280;5025;48.890;9.278;2024-01-10T07:29:56;99678.91;;;-2.58;56.97
9969;BME280;5025;48.890;9.278;2024-01-10T07:32:22;99680.69;;;-2.59;56.95
9969;BME280;5025;48.890;9.278;2024-01-10T07:34:48;99687.66;;;-2.58;57.00
9969;BME280;5025;48.890;9.278;2024-01-10T07:37:13;99691.88;;;-2.55;57.14
9969;BME280;5025;48.890;9.278;2024-01-10T07:39:41;99685.13;;;-2.59;57.21
9969;BME280;5025;48.890;9.278;2024-01-10T07:42:06;99690.31;;;-2.58;57.09
9969;BME280;5025;48.890;9.278;2024-01-10T07:44:32;99695.59;;;-2.58;57.37
9969;BME280;5025;48.890;9.278;2024-01-10T07:46:58;99700.75;;;-2.56;57.36
9969;BME280;5025;48.890;9.278;2024-01-10T07:49:23;99688.47;;;-2.57;57.55
9969;BME280;5025;48.890;9.278;2024-01-10T07:51:49;99698.09;;;-2.56;57.15
9969;BME280;5025;48.890;9.278;2024-01-10T07:54:14;99704.22;;;-2.56;57.36
9969;BME280;5025;48.890;9.278;2024-01-10T07:56:39;99710.50;;;-2.57;57.41
9969;BME280;5025;48.890;9.278;2024-01-10T07:59:05;99705.09;;;-2.55;57.27
9969;BME280;5025;48.890;9.278;2024-01-10T08:01:30;99712.91;;;-2.54;57.35
9969;BME280;5025;48.890;9.278;2024-01-10T08:03:55;99707.50;;;-2.52;57.52
9969;BME280;5025;48.890;9.278;2024-01-10T08:06:20;99716.97;;;-2.49;57.61
9969;BME280;5025;48.890;9.278;2024-01-10T08:08:46;99717.81;;;-2.49;57.23
9969;BME280;5025;48.890;9.278;2024-01-10T08:11:11;99720.22;;;-2.46;57.44
9969;BME280;5025;48.890;9.278;2024-01-10T08:13:36;99721.06;;;-2.45;57.38
9969;BME280;5025;48.890;9.278;2024-01-10T08:16:02;99728.88;;;-2.44;57.51
9969;BME280;5025;48.890;9.278;2024-01-10T08:18:28;99728.88;;;-2.44;57.47
9969;BME280;5025;48.890;9.278;2024-01-10T08:20:54;99721.06;;;-2.45;57.49
9969;BME280;5025;48.890;9.278;2024-01-10T08:23:20;99726.22;;;-2.44;57.89
9969;BME280;5025;48.890;9.278;2024-01-10T08:25:45;99728.75;;;-2.42;57.43
9969;BME280;5025;48.890;9.278;2024-01-10T08:28:11;99725.28;;;-2.43;57.57
9969;BME280;5025;48.890;9.278;2024-01-10T08:30:38;99726.81;;;-2.40;57.79
9969;BME280;5025;48.890;9.278;2024-01-10T08:33:03;99727.44;;;-2.37;57.78
9969;BME280;5025;48.890;9.278;2024-01-10T08:35:29;99734.38;;;-2.36;57.65
9969;BME280;5025;48.890;9.278;2024-01-10T08:37:55;99734.00;;;-2.31;57.91
9969;BME280;5025;48.890;9.278;2024-01-10T08:40:20;99741.94;;;-2.31;57.98
9969;BME280;5025;48.890;9.278;2024-01-10T08:42:48;99741.81;;;-2.29;57.86
9969;BME280;5025;48.890;9.278;2024-01-10T08:45:13;99734.63;;;-2.27;57.78
9969;BME280;5025;48.890;9.278;2024-01-10T08:47:40;99744.84;;;-2.23;57.63
9969;BME280;5025;48.890;9.278;2024-01-10T08:50:05;99740.97;;;-2.19;57.60
9969;BME280;5025;48.890;9.278;2024-01-10T08:52:34;99741.47;;;-2.13;57.54
9969;BME280;5025;48.890;9.278;2024-01-10T08:54:59;99742.75;;;-2.08;57.82
9969;BME280;5025;48.890;9.278;2024-01-10T08:57:24;99745.75;;;-2.01;57.56
9969;BME280;5025;48.890;9.278;2024-01-10T08:59:52;99748.03;;;-1.96;57.65
9969;BME280;5025;48.890;9.278;2024-01-10T09:02:17;99750.31;;;-1.92;57.36
9969;BME280;5025;48.890;9.278;2024-01-10T09:04:42;99743.66;;;-1.86;57.37
9969;BME280;5025;48.890;9.278;2024-01-10T09:07:07;99747.03;;;-1.84;57.34
9969;BME280;5025;48.890;9.278;2024-01-10T09:09:34;99746.53;;;-1.78;57.31
9969;BME280;5025;48.890;9.278;2024-01-10T09:12:00;99755.78;;;-1.72;56.99
9969;BME280;5025;48.890;9.278;2024-01-10T09:14:25;99757.09;;;-1.67;56.78
9969;BME280;5025;48.890;9.278;2024-01-10T09:16:50;99759.09;;;-1.59;56.75
9969;BME280;5025;48.890;9.278;2024-01-10T09:19:17;99755.13;;;-1.53;56.50
9969;BME280;5025;48.890;9.278;2024-01-10T09:21:42;99755.31;;;-1.45;56.57
9969;BME280;5025;48.890;9.278;2024-01-10T09:24:07;99762.03;;;-1.41;56.43
9969;BME280;5025;48.890;9.278;2024-01-10T09:26:36;99757.06;;;-1.34;56.53
9969;BME280;5025;48.890;9.278;2024-01-10T09:29:01;99751.25;;;-1.28;56.41
9969;BME280;5025;48.890;9.278;2024-01-10T09:31:26;99756.16;;;-1.23;56.16
9969;BME280;5025;48.890;9.278;2024-01-10T09:33:51;99761.22;;;-1.20;55.91
9969;BME280;5025;48.890;9.278;2024-01-10T09:36:17;99764.69;;;-1.20;56.05
9969;BME280;5025;48.890;9.278;2024-01-10T09:38:42;99753.69;;;-1.15;55.71
9969;BME280;5025;48.890;9.278;2024-01-10T09:41:07;99760.31;;;-1.10;55.83
9969;BME280;5025;48.890;9.278;2024-01-10T09:43:34;99768.00;;;-1.06;55.54
9969;BME280;5025;48.890;9.278;2024-01-10T09:46:00;99772.91;;;-1.02;55.29
9969;BME280;5025;48.890;9.278;2024-01-10T09:48:26;99770.56;;;-0.95;55.34
9969;BME280;5025;48.890;9.278;2024-01-10T09:50:52;99769.91;;;-0.87;55.20
9969;BME280;5025;48.890;9.278;2024-01-10T09:53:22;99760.22;;;-0.77;55.19
9969;BME280;5025;48.890;9.278;2024-01-10T09:55:52;99768.59;;;-0.72;54.78
9969;BME280;5025;48.890;9.278;2024-01-10T09:58:17;99767.81;;;-0.63;54.43
9969;BME280;5025;48.890;9.278;2024-01-10T10:00:43;99760.28;;;-0.58;54.55
9969;BME280;5025;48.890;9.278;2024-01-10T10:03:09;99762.78;;;-0.66;54.09
9969;BME280;5025;48.890;9.278;2024-01-10T10:05:37;99764.59;;;-0.66;54.14
9969;BME280;5025;48.890;9.278;2024-01-10T10:08:03;99762.81;;;-0.56;53.91
9969;BME280;5025;48.890;9.278;2024-01-10T10:10:31;99760.41;;;-0.59;53.69
9969;BME280;5025;48.890;9.278;2024-01-10T10:12:57;99759.06;;;-0.53;53.57
9969;BME280;5025;48.890;9.278;2024-01-10T10:15:24;99753.91;;;-0.45;53.38
9969;BME280;5025;48.890;9.278;2024-01-10T10:17:53;99754.38;;;-0.40;53.11
9969;BME280;5025;48.890;9.278;2024-01-10T10:20:23;99742.34;;;-0.34;52.93
9969;BME280;5025;48.890;9.278;2024-01-10T10:25:34;99744.41;;;-0.07;52.44
9969;BME280;5025;48.890;9.278;2024-01-10T10:28:01;99747.47;;;-0.02;52.38
9969;BME280;5025;48.890;9.278;2024-01-10T10:30:27;99740.94;;;0.02;52.06
9969;BME280;5025;48.890;9.278;2024-01-10T10:32:52;99737.41;;;0.02;51.68
9969;BME280;5025;48.890;9.278;2024-01-10T10:35:19;99741.63;;;0.04;51.75
9969;BME280;5025;48.890;9.278;2024-01-10T10:37:45;99731.00;;;0.14;51.81
9969;BME280;5025;48.890;9.278;2024-01-10T10:40:10;99731.16;;;0.22;51.38
9969;BME280;5025;48.890;9.278;2024-01-10T10:42:40;99732.41;;;0.28;51.18
9969;BME280;5025;48.890;9.278;2024-01-10T10:45:09;99729.63;;;0.39;51.00
9969;BME280;5025;48.890;9.278;2024-01-10T10:47:38;99732.56;;;0.46;51.05
9969;BME280;5025;48.890;9.278;2024-01-10T10:50:12;99729.34;;;0.52;50.61
9969;BME280;5025;48.890;9.278;2024-01-10T10:52:44;99723.19;;;0.61;50.61
9969;BME280;5025;48.890;9.278;2024-01-10T10:55:13;99727.38;;;0.74;50.81
9969;BME280;5025;48.890;9.278;2024-01-10T10:57:39;99739.25;;;0.79;50.48
9969;BME280;5025;48.890;9.278;2024-01-10T11:00:07;99734.66;;;0.71;50.09
9969;BME280;5025;48.890;9.278;2024-01-10T11:02:32;99733.53;;;0.84;50.27
9969;BME280;5025;48.890;9.278;2024-01-10T11:04:58;99734.59;;;0.91;49.91
9969;BME280;5025;48.890;9.278;2024-01-10T11:07:24;99732.66;;;0.93;49.79
9969;BME280;5025;48.890;9.278;2024-01-10T11:09:50;99730.69;;;0.95;50.08
9969;BME280;5025;48.890;9.278;2024-01-10T11:12:32;99731.66;;;1.04;49.94
9969;BME280;5025;48.890;9.278;2024-01-10T11:18:13;99732.31;;;1.16;49.73
9969;BME280;5025;48.890;9.278;2024-01-10T11:20:50;99734.25;;;1.23;49.59
9969;BME280;5025;48.890;9.278;2024-01-10T11:23:37;99730.03;;;1.31;49.50
9969;BME280;5025;48.890;9.278;2024-01-10T11:26:03;99727.75;;;1.36;49.53
9969;BME280;5025;48.890;9.278;2024-01-10T11:28:31;99727.03;;;1.43;49.44
9969;BME280;5025;48.890;9.278;2024-01-10T11:30:58;99721.94;;;1.50;49.19
9969;BME280;5025;48.890;9.278;2024-01-10T11:33:25;99721.66;;;1.53;49.06
9969;BME280;5025;48.890;9.278;2024-01-10T11:44:27;99712.91;;;1.71;48.71
9969;BME280;5025;48.890;9.278;2024-01-10T11:46:54;99719.84;;;1.82;48.72
9969;BME280;5025;48.890;9.278;2024-01-10T11:49:21;99720.38;;;1.85;48.65
9969;BME280;5025;48.890;9.278;2024-01-10T11:51:55;99716.13;;;1.92;48.51
9969;BME280;5025;48.890;9.278;2024-01-10T11:54:38;99719.72;;;2.01;48.22
9969;BME280;5025;48.890;9.278;2024-01-10T11:57:22;99708.91;;;2.03;47.79
9969;BME280;5025;48.890;9.278;2024-01-10T11:59:50;99704.28;;;2.05;48.01
9969;BME280;5025;48.890;9.278;2024-01-10T12:02:17;99707.31;;;2.10;48.03
9969;BME280;5025;48.890;9.278;2024-01-10T12:04:43;99705.44;;;2.20;47.87
9969;BME280;5025;48.890;9.278;2024-01-10T12:07:08;99707.72;;;2.33;47.81
9969;BME280;5025;48.890;9.278;2024-01-10T12:09:34;99703.00;;;2.45;47.92
9969;BME280;5025;48.890;9.278;2024-01-10T12:12:01;99705.41;;;2.56;47.78
9969;BME280;5025;48.890;9.278;2024-01-10T12:14:27;99699.47;;;2.62;47.59
9969;BME280;5025;48.890;9.278;2024-01-10T12:16:52;99700.34;;;2.71;47.61
9969;BME280;5025;48.890;9.278;2024-01-10T12:19:18;99707.09;;;2.83;47.51
9969;BME280;5025;48.890;9.278;2024-01-10T12:21:43;99700.16;;;2.91;47.71
9969;BME280;5025;48.890;9.278;2024-01-10T12:24:08;99698.53;;;2.98;47.39
9969;BME280;5025;48.890;9.278;2024-01-10T12:26:34;99698.06;;;3.02;47.38
9969;BME280;5025;48.890;9.278;2024-01-10T12:29:01;99695.72;;;2.99;47.09
9969;BME280;5025;48.890;9.278;2024-01-10T12:31:28;99692.34;;;2.97;46.76
9969;BME280;5025;48.890;9.278;2024-01-10T12:33:57;99693.03;;;2.99;46.70
9969;BME280;5025;48.890;9.278;2024-01-10T12:36:22;99689.13;;;3.12;46.65
9969;BME280;5025;48.890;9.278;2024-01-10T12:38:48;99688.53;;;3.26;46.65
9969;BME280;5025;48.890;9.278;2024-01-10T12:41:18;99684.91;;;3.44;46.56
9969;BME280;5025;48.890;9.278;2024-01-10T12:43:43;99682.97;;;3.54;46.45
9969;BME280;5025;48.890;9.278;2024-01-10T12:46:13;99685.50;;;3.64;46.40
9969;BME280;5025;48.890;9.278;2024-01-10T12:48:39;99684.50;;;3.65;46.19
9969;BME280;5025;48.890;9.278;2024-01-10T12:51:07;99694.38;;;3.64;46.08
9969;BME280;5025;48.890;9.278;2024-01-10T12:53:38;99694.03;;;3.67;45.79
9969;BME280;5025;48.890;9.278;2024-01-10T12:56:04;99693.72;;;3.70;45.68
9969;BME280;5025;48.890;9.278;2024-01-10T12:58:30;99695.59;;;3.78;45.69
9969;BME280;5025;48.890;9.278;2024-01-10T13:00:56;99695.44;;;3.88;45.33
9969;BME280;5025;48.890;9.278;2024-01-10T13:03:21;99688.94;;;3.99;45.21
9969;BME280;5025;48.890;9.278;2024-01-10T13:05:47;99682.47;;;4.09;45.21
9969;BME280;5025;48.890;9.278;2024-01-10T13:08:12;99678.63;;;4.20;45.13
9969;BME280;5025;48.890;9.278;2024-01-10T13:10:38;99686.31;;;4.31;45.01
9969;BME280;5025;48.890;9.278;2024-01-10T13:13:03;99678.66;;;4.45;44.98
9969;BME280;5025;48.890;9.278;2024-01-10T13:15:29;99679.47;;;4.54;44.86
9969;BME280;5025;48.890;9.278;2024-01-10T13:17:56;99682.81;;;4.64;44.64
9969;BME280;5025;48.890;9.278;2024-01-10T13:20:21;99670.44;;;4.71;44.58
9969;BME280;5025;48.890;9.278;2024-01-10T13:22:46;99669.91;;;4.84;44.48
9969;BME280;5025;48.890;9.278;2024-01-10T13:25:12;99670.91;;;4.91;44.55
9969;BME280;5025;48.890;9.278;2024-01-10T13:27:38;99679.75;;;5.00;44.24
9969;BME280;5025;48.890;9.278;2024-01-10T13:30:04;99682.09;;;5.11;43.95
9969;BME280;5025;48.890;9.278;2024-01-10T13:32:30;99688.06;;;5.21;43.76